Time;durP1;ratioP1;P1;durP2;ratioP2;P2;SDS_P1;SDS_P2;PMS_P1;PMS_P2;Temp;Humidity;BMP_temperature;BMP_pressure;BME280_temperature;BME280_humidity;BME280_pressure;Samples;Min_cycle;Max_cycle;Signal;HPM_P1;HPM_P2
2022/10/18 00:01:01;;;;;;;62.72;7.15;;;10.90;1.00;;;;;;5030271;28;20176;-78
2022/10/18 00:03:26;;;;;;;38.78;6.20;;;10.80;1.00;;;;;;5012308;28;20495;-78
2022/10/18 00:05:52;;;;;;;19.33;6.03;;;10.70;1.00;;;;;;5022676;28;20056;-78
2022/10/18 00:08:19;;;;;;;113.38;9.80;;;10.70;1.00;;;;;;5030168;28;20026;-78
2022/10/18 00:10:45;;;;;;;71.55;7.43;;;10.70;1.00;;;;;;5030217;28;20029;-78
2022/10/18 00:13:10;;;;;;;43.95;5.65;;;10.70;1.00;;;;;;5030176;28;20022;-78
2022/10/18 00:15:36;;;;;;;31.23;6.05;;;10.70;1.00;;;;;;5018429;28;20029;-78
2022/10/18 00:18:02;;;;;;;269.15;17.02;;;10.60;1.00;;;;;;5023718;28;20037;-78
2022/10/18 00:20:28;;;;;;;192.77;13.43;;;10.50;1.00;;;;;;5010765;28;20019;-78
2022/10/18 00:22:53;;;;;;;508.02;28.98;;;10.60;1.00;;;;;;5011046;28;20137;-78
2022/10/18 00:25:19;;;;;;;190.45;11.48;;;10.60;1.00;;;;;;5022574;28;20026;-78
2022/10/18 00:27:45;;;;;;;130.57;10.30;;;10.60;1.00;;;;;;5011753;28;20022;-78
2022/10/18 00:30:11;;;;;;;83.53;6.90;;;10.70;1.70;;;;;;5011196;28;20022;-78
2022/10/18 00:32:40;;;;;;;164.98;11.20;;;10.50;1.00;;;;;;5015330;28;20029;-78
2022/10/18 00:35:07;;;;;;;115.60;9.63;;;10.60;1.00;;;;;;5017871;28;20072;-78
2022/10/18 00:37:33;;;;;;;76.50;7.70;;;10.60;1.70;;;;;;5010646;28;20030;-78
2022/10/18 00:39:59;;;;;;;248.07;14.75;;;10.50;1.00;;;;;;5010423;28;20018;-78
2022/10/18 00:42:30;;;;;;;42.30;6.72;;;10.40;1.00;;;;;;5011098;28;20117;-78
2022/10/18 00:45:06;;;;;;;19.88;5.22;;;10.30;1.00;;;;;;5011023;28;20517;-78
2022/10/18 00:47:33;;;;;;;257.00;15.38;;;10.30;1.00;;;;;;5006145;28;20028;-78
2022/10/18 00:50:03;;;;;;;35.92;4.85;;;10.30;1.00;;;;;;5032432;28;20032;-78
2022/10/18 00:52:39;;;;;;;191.43;11.38;;;10.30;1.00;;;;;;5033284;28;20404;-78
2022/10/18 00:55:06;;;;;;;387.92;22.15;;;10.20;1.00;;;;;;5017584;28;20530;-78
2022/10/18 00:57:32;;;;;;;54.90;5.55;;;10.30;1.00;;;;;;5013815;28;20516;-78
2022/10/18 00:59:58;;;;;;;72.97;6.47;;;10.20;3.30;;;;;;5027131;28;20029;-78
2022/10/18 01:02:25;;;;;;;241.02;14.45;;;10.20;1.30;;;;;;5023417;28;20104;-78
2022/10/18 01:04:50;;;;;;;165.60;12.75;;;10.20;2.50;;;;;;5032307;28;20053;-78
2022/10/18 01:07:32;;;;;;;240.25;16.52;;;10.30;5.30;;;;;;5024250;28;20455;-78
2022/10/18 01:10:19;;;;;;;146.32;10.88;;;10.30;8.40;;;;;;5031285;28;20025;-78
2022/10/18 01:13:15;;;;;;;155.80;10.40;;;10.40;10.80;;;;;;5032644;28;20022;-78
2022/10/18 01:16:09;;;;;;;306.17;16.70;;;10.30;5.60;;;;;;5032259;28;20453;-78
2022/10/18 01:18:43;;;;;;;46.95;5.53;;;10.30;13.30;;;;;;5014065;28;20489;-78
2022/10/18 01:21:29;;;;;;;217.93;13.40;;;10.30;25.00;;;;;;5027858;28;20018;-78
2022/10/18 01:24:33;;;;;;;243.80;16.92;;;10.40;24.70;;;;;;5013110;28;20022;-78
2022/10/18 01:27:24;;;;;;;47.97;5.57;;;10.40;25.00;;;;;;5019103;28;20026;-78
2022/10/18 01:29:57;;;;;;;22.25;5.22;;;10.30;24.70;;;;;;5019757;28;20038;-79
2022/10/18 01:32:31;;;;;;;179.70;11.70;;;10.20;32.50;;;;;;5032829;28;20312;-78
2022/10/18 01:35:07;;;;;;;216.43;14.95;;;10.30;33.50;;;;;;5018862;28;20029;-79
2022/10/18 01:37:34;;;;;;;58.17;7.03;;;10.30;23.10;;;;;;5001661;28;20037;-78
2022/10/18 01:40:05;;;;;;;91.70;9.13;;;10.20;31.90;;;;;;5013378;28;20029;-78
2022/10/18 01:42:31;;;;;;;201.20;13.30;;;10.10;34.00;;;;;;5013365;28;20385;-78
2022/10/18 01:44:58;;;;;;;92.47;8.68;;;10.20;27.20;;;;;;5013886;28;20488;-78
2022/10/18 01:47:24;;;;;;;24.17;5.60;;;10.10;32.30;;;;;;5013572;28;20036;-78
2022/10/18 01:49:57;;;;;;;134.70;9.95;;;10.00;31.60;;;;;;5028382;28;20025;-78
2022/10/18 01:52:23;;;;;;;165.80;10.25;;;10.10;29.70;;;;;;5019188;28;20407;-78
2022/10/18 01:54:49;;;;;;;163.07;12.18;;;10.00;27.80;;;;;;5023272;28;20026;-78
2022/10/18 01:57:56;;;;;;;147.45;11.02;;;9.90;27.80;;;;;;5012576;28;20030;-78
2022/10/18 02:00:26;;;;;;;47.60;7.70;;;10.00;27.80;;;;;;4992150;28;20033;-78
2022/10/18 02:02:54;;;;;;;136.13;11.40;;;10.00;19.40;;;;;;5013200;28;20033;-78
2022/10/18 02:05:43;;;;;;;80.82;9.63;;;10.10;16.40;;;;;;5025975;28;20507;-78
2022/10/18 02:08:29;;;;;;;43.67;8.43;;;10.00;16.60;;;;;;5025124;28;20041;-78
2022/10/18 02:11:05;;;;;;;53.85;8.35;;;9.90;23.50;;;;;;5012771;28;20037;-78
2022/10/18 02:13:44;;;;;;;45.53;7.75;;;9.90;22.10;;;;;;5028358;28;20018;-78
2022/10/18 02:16:16;;;;;;;33.30;7.22;;;9.90;19.30;;;;;;5031431;28;20451;-78
2022/10/18 02:18:50;;;;;;;25.23;7.15;;;9.80;21.30;;;;;;5031443;28;20025;-78
2022/10/18 02:21:18;;;;;;;23.10;6.88;;;9.80;17.00;;;;;;5031359;28;20060;-78
2022/10/18 02:23:45;;;;;;;49.95;8.07;;;9.80;19.00;;;;;;5032046;28;20079;-78
2022/10/18 02:26:13;;;;;;;21.95;6.70;;;9.80;19.80;;;;;;5017689;28;20071;-78
2022/10/18 02:28:38;;;;;;;28.02;6.45;;;9.80;14.00;;;;;;5019078;28;20479;-79
2022/10/18 02:31:19;;;;;;;35.58;6.57;;;9.80;16.80;;;;;;5018084;28;20053;-79
2022/10/18 02:34:15;;;;;;;36.00;6.70;;;9.70;17.40;;;;;;5010290;28;20254;-79
2022/10/18 02:37:01;;;;;;;44.58;7.22;;;9.70;18.60;;;;;;5011416;28;20053;-79
2022/10/18 02:39:31;;;;;;;25.00;5.85;;;9.80;8.10;;;;;;5012447;28;20041;-79
2022/10/18 02:41:58;;;;;;;16.00;5.10;;;9.70;12.20;;;;;;5012679;28;20017;-79
2022/10/18 02:44:24;;;;;;;17.92;5.30;;;9.60;17.50;;;;;;5012319;28;20040;-78
2022/10/18 02:46:49;;;;;;;28.13;6.07;;;9.50;16.40;;;;;;5011753;28;20026;-79
2022/10/18 02:49:15;;;;;;;26.08;5.72;;;9.70;10.10;;;;;;5011960;28;20046;-79
2022/10/18 02:51:41;;;;;;;25.38;5.53;;;9.60;14.50;;;;;;5012403;28;20022;-79
2022/10/18 02:54:07;;;;;;;24.75;5.40;;;9.50;13.40;;;;;;5013959;28;20401;-78
2022/10/18 02:56:33;;;;;;;112.22;9.27;;;9.60;13.00;;;;;;5021886;28;20030;-78
2022/10/18 02:58:59;;;;;;;28.88;5.20;;;9.50;9.30;;;;;;5013011;28;20109;-78
2022/10/18 03:01:25;;;;;;;24.15;5.70;;;9.40;12.50;;;;;;5012794;28;20093;-78
2022/10/18 03:03:50;;;;;;;34.60;5.57;;;9.40;8.00;;;;;;5012847;28;20021;-79
2022/10/18 03:06:16;;;;;;;50.08;5.72;;;9.30;13.10;;;;;;5021507;28;20032;-78
2022/10/18 03:08:42;;;;;;;23.52;5.05;;;9.20;13.30;;;;;;5017003;28;20025;-78
2022/10/18 03:11:07;;;;;;;16.40;4.72;;;9.20;14.90;;;;;;5030193;28;20380;-79
2022/10/18 03:13:33;;;;;;;18.17;4.07;;;9.20;11.90;;;;;;5027464;28;20021;-79
2022/10/18 03:15:59;;;;;;;19.38;4.35;;;9.20;15.00;;;;;;5021346;28;20025;-78
2022/10/18 03:18:25;;;;;;;17.27;3.90;;;9.10;15.20;;;;;;5015584;28;20037;-78
2022/10/18 03:20:50;;;;;;;20.45;4.45;;;9.00;10.50;;;;;;5020622;28;20025;-78
2022/10/18 03:23:16;;;;;;;9.10;3.72;;;9.00;13.10;;;;;;5014554;28;20061;-79
2022/10/18 03:25:41;;;;;;;15.23;4.10;;;9.00;14.30;;;;;;5021175;28;20064;-79
2022/10/18 03:28:07;;;;;;;13.23;3.53;;;8.90;11.20;;;;;;5030569;28;20026;-78
2022/10/18 03:30:33;;;;;;;13.63;3.25;;;8.90;14.10;;;;;;5021974;28;20064;-79
2022/10/18 03:32:58;;;;;;;12.20;3.35;;;8.80;9.30;;;;;;5013286;28;20028;-79
2022/10/18 03:35:24;;;;;;;14.98;3.70;;;8.80;8.30;;;;;;5030585;28;20057;-79
2022/10/18 03:37:49;;;;;;;11.00;3.13;;;8.80;12.50;;;;;;5030220;28;20057;-79
2022/10/18 03:40:15;;;;;;;11.15;3.30;;;8.80;10.00;;;;;;5030601;28;20022;-78
2022/10/18 03:42:41;;;;;;;9.63;2.85;;;8.80;11.90;;;;;;5015059;28;20492;-78
2022/10/18 03:45:07;;;;;;;10.88;3.00;;;8.70;10.80;;;;;;5011519;28;20022;-79
2022/10/18 03:47:33;;;;;;;8.40;2.60;;;8.70;7.50;;;;;;5023642;28;20440;-79
2022/10/18 03:49:58;;;;;;;7.55;2.80;;;8.60;7.70;;;;;;5011372;28;20022;-79
2022/10/18 03:52:24;;;;;;;9.55;2.80;;;8.70;8.10;;;;;;5025622;28;20484;-79
2022/10/18 03:54:49;;;;;;;16.02;2.90;;;8.50;6.80;;;;;;5021176;28;20440;-79
2022/10/18 03:57:15;;;;;;;8.95;2.83;;;8.50;2.60;;;;;;5011142;28;20477;-78
2022/10/18 03:59:40;;;;;;;11.60;2.65;;;8.40;2.40;;;;;;5011390;28;20030;-78
2022/10/18 04:02:06;;;;;;;7.63;2.58;;;8.40;2.90;;;;;;5023708;28;20100;-79
2022/10/18 04:04:32;;;;;;;10.15;2.88;;;8.40;1.00;;;;;;5010703;28;20385;-78
2022/10/18 04:06:57;;;;;;;6.20;2.30;;;8.30;1.00;;;;;;5025141;28;20445;-78
2022/10/18 04:09:23;;;;;;;19.20;2.65;;;8.20;1.00;;;;;;5030410;28;20021;-78
2022/10/18 04:11:51;;;;;;;5.72;2.30;;;8.10;1.00;;;;;;5014982;28;20072;-79
2022/10/18 04:14:17;;;;;;;14.18;2.85;;;8.10;1.00;;;;;;5010608;28;20022;-79
2022/10/18 04:16:42;;;;;;;7.55;2.38;;;8.20;1.00;;;;;;5010518;28;20307;-78
2022/10/18 04:19:08;;;;;;;8.32;2.75;;;8.00;1.00;;;;;;5019535;28;20067;-78
2022/10/18 04:21:34;;;;;;;19.02;3.00;;;8.00;1.00;;;;;;5029085;28;20312;-78
2022/10/18 04:23:59;;;;;;;8.02;2.70;;;8.00;1.00;;;;;;5023017;28;20408;-79
2022/10/18 04:26:25;;;;;;;13.85;2.85;;;8.10;1.00;;;;;;5015008;28;20022;-78
2022/10/18 04:28:51;;;;;;;20.30;2.83;;;8.10;1.00;;;;;;5014802;28;20100;-79
2022/10/18 04:31:16;;;;;;;24.83;3.28;;;8.00;1.00;;;;;;5014931;28;20041;-79
2022/10/18 04:33:42;;;;;;;9.35;2.00;;;8.00;1.00;;;;;;5015274;28;20053;-79
2022/10/18 04:36:07;;;;;;;47.22;4.35;;;7.90;1.00;;;;;;5014485;28;20054;-79
2022/10/18 04:38:33;;;;;;;42.55;3.05;;;7.90;1.00;;;;;;5021287;28;20330;-78
2022/10/18 04:40:58;;;;;;;126.28;7.70;;;8.00;1.00;;;;;;5019317;28;20022;-79
2022/10/18 04:43:24;;;;;;;25.67;2.55;;;7.90;1.00;;;;;;5031113;28;20409;-79
2022/10/18 04:45:50;;;;;;;32.13;2.83;;;7.80;1.00;;;;;;5030032;28;20025;-78
2022/10/18 04:48:16;;;;;;;59.88;4.82;;;7.80;1.00;;;;;;5013702;28;20351;-78
2022/10/18 04:50:42;;;;;;;20.55;2.60;;;7.70;1.00;;;;;;5026933;28;20026;-78
2022/10/18 04:53:07;;;;;;;22.42;2.47;;;7.60;1.00;;;;;;5012738;28;20021;-79
2022/10/18 04:55:33;;;;;;;9.82;1.95;;;7.60;1.00;;;;;;5025531;28;20434;-79
2022/10/18 04:57:58;;;;;;;25.60;1.90;;;7.60;1.00;;;;;;5024221;28;20025;-79
2022/10/18 05:00:24;;;;;;;10.18;2.03;;;7.60;1.00;;;;;;4995137;28;20529;-78
2022/10/18 05:02:55;;;;;;;9.85;1.70;;;7.60;1.00;;;;;;5014210;28;20022;-78
2022/10/18 05:05:21;;;;;;;14.90;1.85;;;7.40;1.00;;;;;;5015289;28;20017;-79
2022/10/18 05:07:46;;;;;;;86.63;5.70;;;7.30;1.00;;;;;;5012746;28;20156;-79
2022/10/18 05:10:12;;;;;;;11.18;1.48;;;7.30;1.00;;;;;;5025697;28;20021;-78
2022/10/18 05:12:38;;;;;;;9.65;1.50;;;7.20;1.00;;;;;;5012581;28;20022;-78
2022/10/18 05:15:04;;;;;;;35.88;4.03;;;7.10;1.00;;;;;;5015775;28;20037;-79
2022/10/18 05:17:30;;;;;;;22.50;2.00;;;7.20;1.00;;;;;;5031538;28;20485;-78
2022/10/18 05:19:56;;;;;;;15.60;2.33;;;7.20;1.00;;;;;;5016261;28;20018;-78
2022/10/18 05:22:21;;;;;;;21.52;2.92;;;7.30;1.00;;;;;;5012945;28;20249;-78
2022/10/18 05:24:47;;;;;;;29.38;2.60;;;7.20;1.00;;;;;;5012660;28;20089;-79
2022/10/18 05:27:12;;;;;;;27.05;2.47;;;7.20;1.00;;;;;;5012481;28;20121;-79
2022/10/18 05:29:38;;;;;;;40.35;3.42;;;7.20;1.00;;;;;;5012012;28;20025;-79
2022/10/18 05:32:03;;;;;;;18.23;1.65;;;7.10;1.00;;;;;;5020556;28;20029;-79
2022/10/18 05:34:30;;;;;;;4.38;1.55;;;7.00;1.00;;;;;;5016466;28;20310;-79
2022/10/18 05:36:56;;;;;;;30.13;2.50;;;7.00;1.00;;;;;;4993605;28;290456;-79
2022/10/18 05:39:22;;;;;;;133.82;7.60;;;7.00;1.00;;;;;;5030345;28;20120;-78
2022/10/18 05:41:48;;;;;;;39.90;3.42;;;7.20;1.00;;;;;;5013990;28;20113;-79
2022/10/18 05:44:14;;;;;;;48.55;4.55;;;7.20;1.00;;;;;;5025201;28;20056;-79
2022/10/18 05:46:39;;;;;;;23.67;2.03;;;7.20;1.00;;;;;;5021435;28;20031;-79
2022/10/18 05:49:05;;;;;;;9.63;1.83;;;7.10;1.00;;;;;;5018287;28;20038;-78
2022/10/18 05:51:30;;;;;;;9.07;1.48;;;6.90;1.00;;;;;;5013402;28;20026;-78
2022/10/18 05:53:57;;;;;;;19.92;2.38;;;6.70;1.00;;;;;;5027823;28;20057;-79
2022/10/18 05:56:23;;;;;;;53.22;5.53;;;6.90;1.00;;;;;;5024277;28;20105;-79
2022/10/18 05:58:50;;;;;;;140.70;8.48;;;7.20;1.00;;;;;;5012928;28;20110;-78
2022/10/18 06:01:16;;;;;;;41.30;3.47;;;7.40;1.00;;;;;;5012737;28;20385;-78
2022/10/18 06:03:41;;;;;;;22.67;2.60;;;7.30;1.00;;;;;;5012865;28;20486;-78
2022/10/18 06:06:09;;;;;;;288.80;17.50;;;7.00;1.00;;;;;;5012855;28;20034;-78
2022/10/18 06:08:36;;;;;;;22.13;2.80;;;6.90;1.00;;;;;;5027289;28;20069;-79
2022/10/18 06:11:17;;;;;;;100.00;6.18;;;6.70;1.00;;;;;;5022900;28;20018;-78
2022/10/18 06:13:45;;;;;;;12.30;2.08;;;6.90;1.00;;;;;;5029292;28;20021;-78
2022/10/18 06:16:12;;;;;;;4.70;1.90;;;7.10;1.00;;;;;;5021051;28;20416;-78
2022/10/18 06:18:38;;;;;;;3.22;2.20;;;7.00;1.00;;;;;;5029666;28;20381;-78
2022/10/18 06:21:04;;;;;;;13.85;2.03;;;7.00;1.00;;;;;;5031659;28;20055;-78
2022/10/18 06:23:30;;;;;;;3.95;1.77;;;7.00;1.00;;;;;;5031002;28;20025;-79
2022/10/18 06:26:05;;;;;;;10.07;1.88;;;7.00;1.00;;;;;;5020591;28;20026;-78
2022/10/18 06:28:32;;;;;;;7.10;1.90;;;6.80;1.00;;;;;;5025460;28;20021;-78
2022/10/18 06:30:58;;;;;;;7.22;2.25;;;6.70;1.00;;;;;;5012258;28;20018;-79
2022/10/18 06:33:24;;;;;;;6.35;1.98;;;6.80;1.00;;;;;;5011831;28;20026;-79
2022/10/18 06:35:58;;;;;;;7.80;1.92;;;6.80;1.00;;;;;;5024603;28;20507;-79
2022/10/18 06:38:24;;;;;;;6.07;1.67;;;6.80;56.70;;;;;;5012806;28;20026;-78
2022/10/18 06:40:50;;;;;;;3.35;1.52;;;6.70;59.10;;;;;;5011783;28;20026;-79
2022/10/18 06:43:16;;;;;;;11.35;2.10;;;6.70;55.40;;;;;;5024214;28;20056;-79
2022/10/18 06:45:41;;;;;;;3.97;2.05;;;6.90;57.50;;;;;;5024606;28;20473;-78
2022/10/18 06:48:07;;;;;;;9.65;1.77;;;6.90;61.90;;;;;;5031293;28;20021;-78
2022/10/18 06:50:32;;;;;;;6.47;1.85;;;7.00;71.40;;;;;;5030194;28;20025;-78
2022/10/18 06:52:58;;;;;;;13.13;2.00;;;7.00;55.10;;;;;;5025040;28;20029;-78
2022/10/18 06:55:23;;;;;;;9.20;2.60;;;7.40;68.20;;;;;;5012168;28;20054;-78
2022/10/18 06:57:49;;;;;;;10.13;3.55;;;10.90;80.20;;;;;;5018638;28;20025;-78
2022/10/18 07:00:15;;;;;;;7.82;3.08;;;13.40;12.10;;;;;;5018110;28;20026;-78
2022/10/18 07:02:40;;;;;;;12.07;4.05;;;14.90;1.00;;;;;;5012469;28;20421;-78
2022/10/18 07:05:07;;;;;;;11.95;2.92;;;15.90;99.90;;;;;;5013328;28;20026;-78
2022/10/18 07:07:33;;;;;;;18.13;4.50;;;16.50;99.90;;;;;;5000090;28;20400;-78
2022/10/18 07:09:58;;;;;;;9.05;3.05;;;17.30;99.90;;;;;;5012868;28;20098;-78
2022/10/18 07:12:24;;;;;;;7.05;2.58;;;18.00;99.90;;;;;;5018593;28;20056;-78
2022/10/18 07:14:49;;;;;;;6.75;2.90;;;18.00;99.90;;;;;;5017822;28;20097;-78
2022/10/18 07:17:15;;;;;;;8.88;2.70;;;19.00;99.90;;;;;;5017995;28;20060;-78
2022/10/18 07:19:40;;;;;;;7.50;2.40;;;20.10;99.90;;;;;;5030221;28;20032;-78
2022/10/18 07:22:06;;;;;;;8.18;2.17;;;21.30;99.90;;;;;;5000048;28;20025;-78
2022/10/18 07:24:31;;;;;;;8.27;2.90;;;22.10;99.90;;;;;;5023959;28;20056;-78
2022/10/18 07:26:57;;;;;;;8.55;2.00;;;22.90;93.60;;;;;;5017483;28;20090;-78
2022/10/18 07:29:23;;;;;;;7.22;2.10;;;23.70;87.40;;;;;;5018170;28;20034;-78
2022/10/18 07:31:48;;;;;;;48.88;3.58;;;24.70;78.00;;;;;;5017628;28;20474;-78
2022/10/18 07:34:14;;;;;;;19.63;2.15;;;25.80;63.90;;;;;;5030761;28;20110;-78
2022/10/18 07:36:40;;;;;;;6.32;1.48;;;26.10;47.00;;;;;;4996821;28;20089;-78
2022/10/18 07:39:06;;;;;;;6.80;2.10;;;27.40;43.00;;;;;;4998731;28;20105;-78
2022/10/18 07:41:32;;;;;;;4.65;1.70;;;28.40;30.70;;;;;;5003997;28;20093;-78
2022/10/18 07:43:59;;;;;;;4.35;2.00;;;29.30;19.30;;;;;;4991805;28;20023;-78
2022/10/18 07:46:25;;;;;;;7.40;1.92;;;30.30;11.60;;;;;;4979219;28;20038;-78
2022/10/18 07:48:51;;;;;;;10.43;1.88;;;31.00;1.00;;;;;;5004643;28;20390;-78
2022/10/18 07:51:18;;;;;;;8.80;2.20;;;32.00;1.00;;;;;;5004434;28;20029;-78
2022/10/18 07:53:44;;;;;;;5.03;1.42;;;32.10;1.00;;;;;;5004383;28;20044;-78
2022/10/18 07:56:15;;;;;;;9.50;2.00;;;32.90;1.00;;;;;;5003889;28;20057;-78
2022/10/18 07:58:42;;;;;;;6.05;1.52;;;33.40;1.00;;;;;;4992487;28;20030;-78
2022/10/18 08:01:08;;;;;;;3.90;1.20;;;35.90;1.00;;;;;;5010600;28;20101;-78
2022/10/18 08:03:35;;;;;;;5.00;1.80;;;37.80;1.00;;;;;;5010158;28;20014;-78
2022/10/18 08:06:01;;;;;;;6.50;1.60;;;37.60;1.00;;;;;;5002992;28;20125;-78
2022/10/18 08:08:27;;;;;;;6.80;1.50;;;38.20;1.00;;;;;;4991349;28;20106;-78
2022/10/18 08:10:53;;;;;;;7.70;1.67;;;37.50;1.00;;;;;;4999263;28;20022;-78
2022/10/18 08:13:19;;;;;;;5.32;1.58;;;37.50;1.00;;;;;;5010012;28;20025;-78
2022/10/18 08:15:44;;;;;;;5.38;1.50;;;38.80;1.00;;;;;;5002548;28;20092;-78
2022/10/18 08:18:10;;;;;;;33.80;2.72;;;38.90;1.00;;;;;;5002529;28;20450;-78
2022/10/18 08:20:40;;;;;;;52.53;3.65;;;39.40;1.00;;;;;;5010512;28;20033;-78
2022/10/18 08:23:07;;;;;;;;;;;40.10;1.00;;;;;;5008992;28;20029;-78
2022/10/18 08:25:32;;;;;;;5.60;1.48;;;39.90;1.00;;;;;;5001490;28;20028;-78
2022/10/18 08:27:58;;;;;;;8.00;1.48;;;40.00;1.00;;;;;;5004842;28;20525;-79
2022/10/18 08:30:23;;;;;;;7.70;1.52;;;39.90;1.00;;;;;;5002602;28;20027;-79
2022/10/18 08:32:49;;;;;;;7.40;1.88;;;40.30;1.00;;;;;;4992208;28;20026;-79
2022/10/18 08:35:15;;;;;;;7.40;1.52;;;40.30;1.00;;;;;;5013652;28;20121;-79
2022/10/18 08:37:40;;;;;;;6.70;1.65;;;40.90;1.00;;;;;;5016464;28;20034;-79
2022/10/18 08:40:06;;;;;;;5.97;1.20;;;40.50;1.00;;;;;;5029869;28;20024;-79
2022/10/18 08:42:41;;;;;;;7.97;1.38;;;39.90;1.00;;;;;;5029549;28;20032;-79
2022/10/18 08:45:11;;;;;;;6.85;1.30;;;40.40;1.00;;;;;;5021209;28;20022;-79
2022/10/18 08:47:40;;;;;;;9.27;1.63;;;41.30;1.00;;;;;;5023411;28;20014;-79
2022/10/18 08:50:18;;;;;;;7.82;1.50;;;41.90;1.00;;;;;;5020564;28;20116;-79
2022/10/18 08:52:50;;;;;;;6.78;1.30;;;41.00;1.00;;;;;;5029271;28;20079;-79
2022/10/18 08:55:38;;;;;;;9.07;1.65;;;39.50;1.00;;;;;;5029663;28;20026;-79
2022/10/18 08:58:25;;;;;;;7.22;1.25;;;32.40;1.00;;;;;;5000363;28;20441;-79
2022/10/18 09:00:59;;;;;;;7.43;1.02;;;28.10;1.00;;;;;;5023543;28;20018;-79
2022/10/18 09:03:41;;;;;;;10.30;1.40;;;25.20;1.00;;;;;;5023138;28;20105;-79
2022/10/18 09:06:15;;;;;;;7.28;1.27;;;23.50;1.00;;;;;;4982213;28;20030;-79
2022/10/18 09:09:06;;;;;;;5.97;1.20;;;22.70;1.00;;;;;;5013718;28;20060;-78
2022/10/18 09:11:50;;;;;;;10.95;1.20;;;21.60;1.00;;;;;;5033027;28;20075;-78
2022/10/18 09:14:37;;;;;;;6.32;1.27;;;20.90;1.00;;;;;;5004339;28;20469;-78
2022/10/18 09:17:14;;;;;;;6.22;1.08;;;20.10;1.00;;;;;;5031901;28;20115;-78
2022/10/18 09:20:18;;;;;;;8.57;1.35;;;19.60;1.00;;;;;;5032571;28;20025;-78
2022/10/18 09:22:52;;;;;;;5.47;1.00;;;19.20;1.00;;;;;;5013584;28;20022;-78
2022/10/18 09:25:20;;;;;;;9.80;1.60;;;18.50;1.00;;;;;;5014073;28;20378;-78
2022/10/18 09:28:12;;;;;;;5.93;1.00;;;18.30;1.00;;;;;;4995966;28;20038;-78
2022/10/18 09:30:53;;;;;;;9.93;1.70;;;19.20;1.00;;;;;;5012370;28;20025;-78
2022/10/18 09:33:38;;;;;;;9.00;1.35;;;22.70;1.00;;;;;;5014612;28;20033;-78
2022/10/18 09:36:06;;;;;;;6.15;1.20;;;27.80;1.00;;;;;;5012881;28;20125;-78
2022/10/18 09:38:56;;;;;;;5.10;1.15;;;29.60;1.00;;;;;;5013663;28;20026;-78
2022/10/18 09:41:41;;;;;;;8.90;1.35;;;31.00;1.00;;;;;;5012906;28;20473;-78
2022/10/18 09:44:27;;;;;;;7.13;1.30;;;31.20;1.00;;;;;;5026570;28;20040;-78
2022/10/18 09:47:04;;;;;;;5.68;1.35;;;32.20;1.00;;;;;;5032713;28;20044;-78
2022/10/18 09:49:41;;;;;;;7.28;1.27;;;31.40;1.00;;;;;;5009178;28;20041;-78
2022/10/18 09:52:17;;;;;;;8.75;1.45;;;31.00;1.00;;;;;;5025642;28;20104;-78
2022/10/18 09:54:50;;;;;;;6.15;1.10;;;29.70;1.00;;;;;;5025047;28;20029;-78
2022/10/18 09:57:42;;;;;;;8.90;0.90;;;28.00;1.00;;;;;;5025496;28;20040;-78
2022/10/18 10:00:28;;;;;;;9.07;1.35;;;25.90;1.00;;;;;;4987020;28;20088;-78
2022/10/18 10:02:53;;;;;;;7.78;1.08;;;23.30;1.00;;;;;;5002700;28;20496;-78
2022/10/18 10:05:19;;;;;;;7.20;1.52;;;22.10;1.00;;;;;;5014523;28;20022;-78
2022/10/18 10:07:47;;;;;;;9.60;1.52;;;21.40;1.00;;;;;;5031266;28;20494;-78
2022/10/18 10:10:20;;;;;;;9.70;1.55;;;20.40;1.00;;;;;;5030836;28;20026;-78
2022/10/18 10:12:46;;;;;;;6.55;1.00;;;19.60;1.00;;;;;;5022865;28;20567;-78
2022/10/18 10:15:18;;;;;;;11.98;1.33;;;19.40;1.00;;;;;;5026298;28;20349;-78
2022/10/18 10:17:54;;;;;;;7.93;1.45;;;19.10;1.00;;;;;;5023390;28;20512;-77
2022/10/18 10:20:22;;;;;;;7.20;1.02;;;18.90;1.00;;;;;;5026467;28;20042;-77
2022/10/18 10:22:50;;;;;;;10.45;1.63;;;18.80;1.00;;;;;;5023558;28;20508;-78
2022/10/18 10:25:36;;;;;;;6.53;1.25;;;19.00;1.00;;;;;;5014385;28;20500;-78
2022/10/18 10:28:06;;;;;;;6.90;1.13;;;18.80;1.00;;;;;;5027527;28;20049;-78
2022/10/18 10:30:34;;;;;;;8.50;1.30;;;18.60;1.00;;;;;;5022918;28;20030;-78
2022/10/18 10:33:01;;;;;;;7.63;1.10;;;18.90;1.00;;;;;;5012335;28;20536;-78
2022/10/18 10:35:56;;;;;;;9.25;0.80;;;18.60;1.00;;;;;;5012328;28;20054;-78
2022/10/18 10:38:24;;;;;;;13.15;1.45;;;19.20;1.00;;;;;;5017979;28;20049;-77
2022/10/18 10:40:50;;;;;;;9.45;1.45;;;19.00;1.00;;;;;;5018445;28;20101;-78
2022/10/18 10:43:35;;;;;;;11.40;1.70;;;18.90;1.00;;;;;;5031833;28;20048;-78
2022/10/18 10:46:13;;;;;;;8.27;1.15;;;18.50;1.00;;;;;;5027930;28;20101;-78
2022/10/18 10:48:54;;;;;;;7.13;1.30;;;18.50;1.00;;;;;;5011901;28;20017;-78
2022/10/18 10:51:37;;;;;;;8.00;1.02;;;18.50;1.00;;;;;;5005646;28;20101;-78
2022/10/18 10:54:19;;;;;;;6.18;0.98;;;18.30;1.00;;;;;;5021593;28;20026;-77
2022/10/18 10:56:54;;;;;;;9.30;1.40;;;18.70;1.00;;;;;;5031897;28;20059;-78
2022/10/18 10:59:21;;;;;;;8.25;1.15;;;18.80;1.00;;;;;;5029338;28;20071;-78
2022/10/18 11:01:49;;;;;;;9.55;1.10;;;18.90;1.00;;;;;;5019342;28;20026;-78
2022/10/18 11:04:27;;;;;;;10.40;1.45;;;18.60;1.00;;;;;;5011596;28;20040;-77
2022/10/18 11:07:01;;;;;;;6.50;1.42;;;18.50;1.00;;;;;;5013226;28;20061;-78
2022/10/18 11:09:49;;;;;;;8.00;1.23;;;18.40;1.00;;;;;;5022403;28;20473;-77
2022/10/18 11:12:21;;;;;;;10.77;1.05;;;18.50;1.00;;;;;;5024828;28;20029;-78
2022/10/18 11:14:56;;;;;;;10.95;1.50;;;18.70;1.00;;;;;;5011638;28;20061;-77
2022/10/18 11:17:31;;;;;;;9.52;1.33;;;18.60;1.00;;;;;;4992159;28;20022;-77
2022/10/18 11:20:23;;;;;;;8.48;1.30;;;18.60;1.00;;;;;;5020371;28;20033;-77
2022/10/18 11:22:59;;;;;;;11.93;1.52;;;18.40;1.00;;;;;;5011379;28;20022;-77
2022/10/18 11:25:35;;;;;;;10.32;1.48;;;18.50;1.00;;;;;;5023939;28;20030;-77
2022/10/18 11:28:24;;;;;;;8.80;1.30;;;18.40;1.00;;;;;;5026060;28;20045;-78
2022/10/18 11:31:06;;;;;;;8.80;1.10;;;18.70;1.00;;;;;;5018963;28;20034;-78
2022/10/18 11:33:48;;;;;;;8.77;0.90;;;18.90;1.00;;;;;;4999480;28;20037;-78
2022/10/18 11:36:38;;;;;;;8.85;1.10;;;19.50;1.00;;;;;;5013697;28;20100;-78
2022/10/18 11:39:22;;;;;;;10.23;1.40;;;19.20;1.00;;;;;;5018163;28;20025;-78
2022/10/18 11:41:56;;;;;;;11.18;1.80;;;18.60;1.00;;;;;;5000040;28;20477;-77
2022/10/18 11:44:32;;;;;;;6.68;1.13;;;18.30;1.00;;;;;;5011133;28;20034;-78
2022/10/18 11:47:18;;;;;;;7.93;1.10;;;18.30;1.00;;;;;;5011131;28;20080;-77
2022/10/18 11:50:08;;;;;;;5.95;1.00;;;18.30;1.00;;;;;;4998973;28;20036;-77
2022/10/18 11:52:40;;;;;;;;;;;18.30;1.00;;;;;;5010989;28;20485;-78
2022/10/18 11:55:30;;;;;;;8.32;1.45;;;18.30;1.00;;;;;;5022346;28;19909;-78
2022/10/18 11:58:14;;;;;;;9.65;1.17;;;18.80;1.00;;;;;;5006564;28;20120;-78
2022/10/18 12:00:57;;;;;;;6.38;1.30;;;18.30;1.00;;;;;;5029551;28;20026;-77
2022/10/18 12:03:47;;;;;;;8.93;1.30;;;18.20;1.00;;;;;;5030247;28;20051;-77
2022/10/18 12:06:20;;;;;;;9.65;1.30;;;18.40;1.00;;;;;;5000813;28;20014;-77
2022/10/18 12:08:49;;;;;;;8.20;1.25;;;18.50;1.00;;;;;;5011311;28;20432;-77
2022/10/18 12:11:21;;;;;;;7.90;1.10;;;18.40;1.00;;;;;;5021099;28;20056;-77
2022/10/18 12:13:55;;;;;;;8.80;1.30;;;18.30;1.00;;;;;;5024599;28;20487;-78
2022/10/18 12:16:23;;;;;;;7.40;1.00;;;18.60;1.00;;;;;;5011337;28;20482;-77
2022/10/18 12:19:01;;;;;;;10.45;1.17;;;18.50;1.00;;;;;;5028601;28;20034;-78
2022/10/18 12:21:30;;;;;;;7.70;1.20;;;18.50;1.00;;;;;;5027420;28;20377;-78
2022/10/18 12:24:04;;;;;;;7.57;1.40;;;18.50;1.00;;;;;;5018792;28;20064;-78
2022/10/18 12:26:32;;;;;;;5.60;1.25;;;18.50;1.00;;;;;;5014991;28;20038;-78
2022/10/18 12:29:01;;;;;;;7.07;1.05;;;18.40;1.00;;;;;;5020090;28;20025;-78
2022/10/18 12:31:37;;;;;;;8.77;0.98;;;18.00;1.00;;;;;;5016756;28;20029;-78
2022/10/18 12:34:22;;;;;;;7.72;1.27;;;17.70;1.00;;;;;;5018792;28;20030;-78
2022/10/18 12:36:54;;;;;;;5.97;1.27;;;17.70;1.00;;;;;;4999999;28;20050;-78
2022/10/18 12:39:31;;;;;;;4.43;1.23;;;17.40;1.00;;;;;;5013395;28;20022;-77
2022/10/18 12:41:57;;;;;;;5.22;0.80;;;17.10;1.00;;;;;;5001884;28;20051;-78
2022/10/18 12:44:30;;;;;;;6.93;1.00;;;17.40;1.00;;;;;;5023899;28;20056;-78
2022/10/18 12:46:58;;;;;;;7.40;1.20;;;17.50;1.00;;;;;;5025303;28;20044;-78
2022/10/18 12:49:31;;;;;;;11.48;1.15;;;17.80;1.00;;;;;;5028926;28;20053;-78
2022/10/18 12:51:58;;;;;;;6.32;1.05;;;17.80;1.00;;;;;;5014969;28;20026;-78
2022/10/18 12:54:30;;;;;;;6.78;1.30;;;17.50;1.00;;;;;;5008385;28;20024;-78
2022/10/18 12:56:57;;;;;;;6.47;1.15;;;17.20;1.00;;;;;;5032927;28;20087;-78
2022/10/18 12:59:25;;;;;;;4.75;0.75;;;17.30;1.00;;;;;;5033392;28;20080;-78
2022/10/18 13:01:54;;;;;;;6.10;1.20;;;17.30;1.00;;;;;;5032194;28;20022;-78
2022/10/18 13:04:32;;;;;;;4.72;1.20;;;17.10;1.00;;;;;;5033291;28;20029;-78
2022/10/18 13:07:16;;;;;;;8.07;1.30;;;17.10;1.00;;;;;;5030885;28;20029;-78
2022/10/18 13:10:11;;;;;;;10.07;1.33;;;17.10;1.00;;;;;;5014054;28;20323;-78